createdAt,value
2018-07-17T00:00:17.110Z,5.70
2018-07-17T00:05:20.719Z,6.43
2018-07-17T00:10:23.932Z,5.70
2018-07-17T00:15:34.553Z,5.43
2018-07-17T00:20:38.137Z,6.20
2018-07-17T00:25:42.094Z,5.30
2018-07-17T00:30:45.631Z,6.37
2018-07-17T00:35:48.880Z,6.20
2018-07-17T00:40:52.657Z,5.07
2018-07-17T00:45:56.744Z,6.30
2018-07-17T00:51:00.018Z,5.90
2018-07-17T00:56:03.970Z,5.30
2018-07-17T01:01:06.891Z,5.50
2018-07-17T01:06:15.550Z,7.40
2018-07-17T01:11:24.108Z,5.73
2018-07-17T01:16:28.277Z,6.00
2018-07-17T01:21:31.890Z,5.70
2018-07-17T01:26:35.173Z,5.90
2018-07-17T01:31:39.069Z,6.10
2018-07-17T01:36:42.616Z,5.43
2018-07-17T01:41:46.133Z,5.90
2018-07-17T01:46:49.770Z,5.83
2018-07-17T01:51:53.000Z,5.80
2018-07-17T01:56:56.257Z,5.53
2018-07-17T02:02:00.155Z,6.77
2018-07-17T02:07:03.825Z,6.50
2018-07-17T02:12:07.389Z,5.00
2018-07-17T02:17:11.109Z,5.93
2018-07-17T02:22:14.817Z,5.67
2018-07-17T02:27:18.000Z,5.77
2018-07-17T02:32:21.548Z,6.30
2018-07-17T02:37:26.201Z,5.67
2018-07-17T02:42:30.126Z,5.23
2018-07-17T02:47:38.132Z,6.90
2018-07-17T02:52:41.965Z,4.67
2018-07-17T02:57:47.770Z,6.00
2018-07-17T03:02:51.987Z,5.90
2018-07-17T03:07:55.453Z,6.40
2018-07-17T03:12:59.278Z,6.50
2018-07-17T03:18:02.525Z,5.83
2018-07-17T03:23:06.052Z,5.90
2018-07-17T03:28:09.502Z,6.40
2018-07-17T03:33:12.833Z,5.63
2018-07-17T03:38:16.117Z,6.60
2018-07-17T03:43:19.289Z,5.70
2018-07-17T03:48:23.076Z,5.67
2018-07-17T03:53:26.596Z,6.17
2018-07-17T03:58:30.257Z,5.57
2018-07-17T04:03:34.114Z,6.27
2018-07-17T04:08:41.441Z,5.77
2018-07-17T04:13:44.750Z,6.80
2018-07-17T04:18:48.603Z,5.57
2018-07-17T04:23:52.158Z,6.60
2018-07-17T04:28:55.603Z,6.10
2018-07-17T04:33:58.935Z,5.33
2018-07-17T04:39:02.283Z,6.70
2018-07-17T04:44:05.941Z,9.17
2018-07-17T04:49:10.064Z,6.20
2018-07-17T04:54:13.326Z,8.60
2018-07-17T04:59:16.724Z,7.70
2018-07-17T05:04:20.588Z,10.27
2018-07-17T05:09:23.805Z,11.50
2018-07-17T05:14:27.033Z,17.57
2018-07-17T05:19:30.415Z,17.20
2018-07-17T05:24:33.700Z,11.27
2018-07-17T05:29:36.942Z,7.43
2018-07-17T05:34:40.201Z,16.57
2018-07-17T05:39:43.597Z,7.80
2018-07-17T05:44:46.656Z,17.30
2018-07-17T05:49:49.868Z,10.60
2018-07-17T05:54:53.125Z,16.07
2018-07-17T05:59:56.481Z,15.50
2018-07-17T06:05:00.540Z,16.07
2018-07-17T06:10:03.936Z,10.77
2018-07-17T06:15:07.376Z,14.60
2018-07-17T06:20:10.654Z,9.40
2018-07-17T06:25:14.988Z,10.50
2018-07-17T06:30:18.225Z,12.00
2018-07-17T06:35:25.470Z,10.90
2018-07-17T06:46:34.740Z,11.83
2018-07-17T06:51:38.209Z,11.77
2018-07-17T06:56:42.061Z,13.27
2018-07-17T07:01:45.416Z,13.27
2018-07-17T07:06:49.239Z,9.83
2018-07-17T07:11:52.382Z,11.13
2018-07-17T07:16:55.798Z,9.40
2018-07-17T07:21:59.071Z,9.23
2018-07-17T07:27:02.306Z,8.43
2018-07-17T07:32:05.525Z,6.73
2018-07-17T07:37:09.358Z,7.47
2018-07-17T07:42:12.542Z,6.33
2018-07-17T07:47:15.737Z,6.63
2018-07-17T07:52:18.996Z,5.77
2018-07-17T07:57:22.272Z,6.77
2018-07-17T08:02:25.497Z,6.90
2018-07-17T08:07:29.007Z,6.83
2018-07-17T08:12:32.305Z,5.97
2018-07-17T08:17:35.576Z,5.20
2018-07-17T08:22:39.101Z,6.03
2018-07-17T08:27:43.722Z,4.97
2018-07-17T08:32:46.913Z,4.17
2018-07-17T08:37:50.234Z,4.87
2018-07-17T08:42:53.481Z,4.57
2018-07-17T08:47:56.668Z,5.27
2018-07-17T08:53:00.111Z,5.60
2018-07-17T08:58:03.312Z,5.63
2018-07-17T09:03:06.869Z,5.80
2018-07-17T09:08:10.468Z,10.70
2018-07-17T09:13:13.694Z,5.23
2018-07-17T09:18:16.978Z,4.90
2018-07-17T09:23:20.264Z,5.73
2018-07-17T09:28:23.472Z,5.50
2018-07-17T09:33:27.278Z,4.20
2018-07-17T09:38:32.873Z,3.60
2018-07-17T09:43:36.824Z,4.03
2018-07-17T09:48:40.047Z,4.27
2018-07-17T09:53:44.137Z,3.60
2018-07-17T09:58:47.353Z,4.80
2018-07-17T10:03:51.094Z,4.23
2018-07-17T10:08:54.375Z,4.70
2018-07-17T10:13:59.065Z,3.83
2018-07-17T10:19:02.263Z,5.27
2018-07-17T10:24:05.531Z,3.83
2018-07-17T10:29:09.577Z,4.87
2018-07-17T10:34:13.074Z,3.83
2018-07-17T10:39:17.433Z,4.50
2018-07-17T10:44:20.665Z,4.60
2018-07-17T10:49:24.643Z,4.30
2018-07-17T10:54:27.892Z,4.80
2018-07-17T10:59:31.101Z,4.53
2018-07-17T11:04:34.317Z,4.53
2018-07-17T11:09:38.241Z,4.30
2018-07-17T11:14:41.444Z,3.40
2018-07-17T11:19:44.653Z,3.50
2018-07-17T11:24:47.941Z,4.07
2018-07-17T11:29:51.620Z,3.70
2018-07-17T11:35:01.544Z,4.53
2018-07-17T11:40:05.644Z,4.07
2018-07-17T11:45:08.901Z,4.23
2018-07-17T11:50:15.535Z,3.70
2018-07-17T11:55:19.515Z,3.97
2018-07-17T12:00:23.321Z,3.13
2018-07-17T12:05:26.802Z,4.40
2018-07-17T12:10:30.577Z,6.00
2018-07-17T12:15:34.406Z,3.90
2018-07-17T12:20:37.830Z,4.20
2018-07-17T12:25:40.968Z,5.17
2018-07-17T12:30:44.205Z,4.00
2018-07-17T12:35:47.777Z,4.47
2018-07-17T12:40:51.294Z,4.90
2018-07-17T12:45:54.833Z,4.63
2018-07-17T12:50:58.081Z,4.90
2018-07-17T12:56:01.860Z,3.93
2018-07-17T13:01:05.220Z,3.93
2018-07-17T13:06:08.506Z,4.30
2018-07-17T13:11:12.024Z,4.70
2018-07-17T13:16:15.809Z,4.33
2018-07-17T13:21:19.190Z,4.90
2018-07-17T13:26:22.552Z,4.20
2018-07-17T13:31:25.943Z,4.67
2018-07-17T13:36:29.297Z,3.30
2018-07-17T13:41:32.708Z,3.90
2018-07-17T13:46:36.444Z,4.10
2018-07-17T13:51:39.967Z,3.97
2018-07-17T13:56:43.626Z,4.13
2018-07-17T14:01:47.074Z,4.23
2018-07-17T14:06:55.399Z,4.50
2018-07-17T14:11:59.209Z,5.20
2018-07-17T14:17:02.690Z,4.30
2018-07-17T14:22:13.877Z,4.77
2018-07-17T14:27:18.156Z,4.17
2018-07-17T14:32:21.991Z,3.50
2018-07-17T14:37:25.427Z,3.90
2018-07-17T14:42:28.923Z,4.23
2018-07-17T14:47:32.834Z,3.90
2018-07-17T14:52:36.908Z,3.90
2018-07-17T14:57:40.877Z,3.97
2018-07-17T15:02:52.166Z,4.10
2018-07-17T15:07:55.982Z,3.70
2018-07-17T15:12:59.949Z,3.33
2018-07-17T15:18:04.494Z,4.20
2018-07-17T15:23:07.929Z,3.97
2018-07-17T15:28:11.821Z,3.47
2018-07-17T15:33:15.386Z,3.67
2018-07-17T15:38:18.842Z,4.27
2018-07-17T15:43:23.134Z,3.53
2018-07-17T15:48:26.677Z,3.00
2018-07-17T15:53:30.014Z,3.27
2018-07-17T15:58:33.817Z,4.03
2018-07-17T16:03:37.112Z,3.47
2018-07-17T16:08:40.465Z,3.03
2018-07-17T16:13:44.457Z,2.43
2018-07-17T16:18:47.519Z,2.90
2018-07-17T16:23:50.815Z,3.13
2018-07-17T16:28:54.531Z,3.10
2018-07-17T16:33:57.906Z,3.50
2018-07-17T16:39:01.210Z,2.53
2018-07-17T16:44:04.863Z,2.63
2018-07-17T16:49:08.178Z,2.77
2018-07-17T16:54:11.531Z,3.90
2018-07-17T16:59:14.733Z,5.80
2018-07-17T17:04:22.420Z,5.10
2018-07-17T17:09:26.034Z,4.73
2018-07-17T17:14:29.328Z,4.80
2018-07-17T17:19:32.524Z,4.47
2018-07-17T17:24:35.839Z,4.20
2018-07-17T17:29:39.176Z,4.40
2018-07-17T17:34:42.714Z,4.03
2018-07-17T17:39:46.037Z,3.80
2018-07-17T17:44:49.285Z,3.60
2018-07-17T17:49:52.551Z,4.40
2018-07-17T17:54:55.906Z,4.90
2018-07-17T18:00:02.658Z,5.50
2018-07-17T18:05:06.494Z,5.40
2018-07-17T18:10:09.832Z,4.90
2018-07-17T18:15:13.527Z,5.40
2018-07-17T18:20:17.031Z,4.10
2018-07-17T18:25:20.607Z,4.37
2018-07-17T18:30:23.939Z,4.90
2018-07-17T18:35:27.235Z,4.67
2018-07-17T18:40:30.906Z,3.87
2018-07-17T18:45:34.610Z,3.47
2018-07-17T18:50:37.900Z,6.00
2018-07-17T18:55:41.187Z,6.37
2018-07-17T19:00:44.434Z,6.03
2018-07-17T19:05:48.439Z,6.30
2018-07-17T19:10:52.044Z,7.37
2018-07-17T19:15:55.797Z,7.13
2018-07-17T19:20:59.078Z,5.97
2018-07-17T19:26:02.356Z,7.60
2018-07-17T19:31:06.180Z,7.80
2018-07-17T19:36:09.549Z,6.07
2018-07-17T19:41:13.059Z,6.40
2018-07-17T19:46:16.324Z,5.83
2018-07-17T19:51:19.824Z,7.90
2018-07-17T19:56:24.301Z,7.87
2018-07-17T20:01:27.827Z,9.90
2018-07-17T20:06:31.185Z,11.97
2018-07-17T20:11:34.430Z,18.50
2018-07-17T20:16:38.921Z,20.60
2018-07-17T20:21:42.274Z,27.00
2018-07-17T20:26:45.543Z,33.90
2018-07-17T20:31:52.869Z,36.47
2018-07-17T20:36:57.194Z,44.23
2018-07-17T20:42:00.469Z,43.77
2018-07-17T20:47:04.018Z,47.17
2018-07-17T20:52:07.277Z,58.40
2018-07-17T20:57:10.557Z,54.87
2018-07-17T21:02:14.333Z,56.70
2018-07-17T21:07:17.565Z,54.00
2018-07-17T21:12:21.383Z,64.10
2018-07-17T21:17:26.353Z,62.00
2018-07-17T21:22:29.591Z,53.90
2018-07-17T21:27:32.893Z,49.40
2018-07-17T21:32:36.146Z,52.17
2018-07-17T21:37:39.436Z,42.17
2018-07-17T21:42:42.773Z,48.70
2018-07-17T21:47:46.270Z,48.20
2018-07-17T21:52:49.445Z,48.87
2018-07-17T21:57:53.005Z,47.30
2018-07-17T22:03:00.218Z,47.00
2018-07-17T22:08:03.625Z,43.23
2018-07-17T22:13:11.223Z,45.70
2018-07-17T22:18:19.160Z,35.60
2018-07-17T22:23:22.802Z,44.80
2018-07-17T22:28:26.629Z,37.53
2018-07-17T22:33:30.499Z,42.00
2018-07-17T22:38:33.699Z,27.33
2018-07-17T22:43:37.313Z,35.20
2018-07-17T22:48:40.605Z,38.50
2018-07-17T22:53:44.186Z,30.60
2018-07-17T22:58:47.445Z,32.50
2018-07-17T23:03:50.909Z,42.90
2018-07-17T23:08:54.428Z,40.20
2018-07-17T23:13:57.825Z,40.80
2018-07-17T23:19:01.319Z,40.90
2018-07-17T23:24:04.546Z,41.00
2018-07-17T23:29:08.377Z,43.53
2018-07-17T23:34:11.878Z,40.17
2018-07-17T23:39:15.559Z,41.90
2018-07-17T23:44:19.054Z,42.00
2018-07-17T23:49:28.278Z,41.63
2018-07-17T23:54:31.523Z,40.43
2018-07-17T23:59:35.185Z,39.67
